Jamestown, New York
Current Conditions -  °F | °C
As of 5:35 PM on Friday 24 Oct 2014 (Local Time) from KJHW Reporting Station
Clear Clear  
Wind Chill: 52°   Ceiling: Unl
Heat Index: 52°   Visibility: 10mi
Dew Point: 39°   Wind: 6mph
Humidity: 62%   Direction: 270°W
Pressure: 29.97"   Gusts: NA
Location:  42.1°N, 79.24°W
Report Text: KJHW 242135Z AUTO 27005KT 10SM CLR 11/04 A2997 RMK AO1
Loading
Personal Weather Stations






























Interactive Weather Map
Tropical Storm Tracking
New forecast layout! Learn more

10-Day Weather Forecast

Advertisements
Track Severe Weather on mobile